sensor_id;sensor_type;location;lat;lon;timestamp;P1;durP1;ratioP1;P2;durP2;ratioP2
29254;SDS011;16277;48.890;2.306;2023-02-01T00:13:03;9.97;;;4.90;;
29254;SDS011;16277;48.890;2.306;2023-02-01T00:28:08;7.33;;;4.10;;
29254;SDS011;16277;48.890;2.306;2023-02-01T00:43:12;9.93;;;5.17;;
29254;SDS011;16277;48.890;2.306;2023-02-01T00:58:17;11.43;;;4.77;;
29254;SDS011;16277;48.890;2.306;2023-02-01T01:13:22;15.90;;;5.70;;
29254;SDS011;16277;48.890;2.306;2023-02-01T01:28:27;13.90;;;4.67;;
29254;SDS011;16277;48.890;2.306;2023-02-01T01:58:57;13.40;;;5.90;;
29254;SDS011;16277;48.890;2.306;2023-02-01T02:14:02;17.13;;;5.40;;
29254;SDS011;16277;48.890;2.306;2023-02-01T02:29:28;22.03;;;5.27;;
29254;SDS011;16277;48.890;2.306;2023-02-01T02:44:45;26.03;;;7.27;;
29254;SDS011;16277;48.890;2.306;2023-02-01T03:00:13;22.00;;;5.50;;
29254;SDS011;16277;48.890;2.306;2023-02-01T03:15:38;12.27;;;4.57;;
29254;SDS011;16277;48.890;2.306;2023-02-01T03:30:46;20.90;;;6.63;;
29254;SDS011;16277;48.890;2.306;2023-02-01T03:45:52;23.73;;;6.77;;
29254;SDS011;16277;48.890;2.306;2023-02-01T04:01:02;24.67;;;6.53;;
29254;SDS011;16277;48.890;2.306;2023-02-01T04:16:09;46.27;;;8.53;;
29254;SDS011;16277;48.890;2.306;2023-02-01T04:31:14;17.00;;;6.73;;
29254;SDS011;16277;48.890;2.306;2023-02-01T04:46:19;28.87;;;6.70;;
29254;SDS011;16277;48.890;2.306;2023-02-01T05:01:24;21.73;;;5.90;;
29254;SDS011;16277;48.890;2.306;2023-02-01T05:16:28;26.57;;;6.57;;
29254;SDS011;16277;48.890;2.306;2023-02-01T05:31:33;17.77;;;6.37;;
29254;SDS011;16277;48.890;2.306;2023-02-01T05:46:37;27.57;;;6.97;;
29254;SDS011;16277;48.890;2.306;2023-02-01T06:01:42;28.10;;;6.77;;
29254;SDS011;16277;48.890;2.306;2023-02-01T06:16:47;22.87;;;6.53;;
29254;SDS011;16277;48.890;2.306;2023-02-01T06:31:51;26.10;;;6.67;;
29254;SDS011;16277;48.890;2.306;2023-02-01T06:46:56;22.50;;;6.50;;
29254;SDS011;16277;48.890;2.306;2023-02-01T07:02:00;22.57;;;6.73;;
29254;SDS011;16277;48.890;2.306;2023-02-01T07:17:05;24.27;;;7.63;;
29254;SDS011;16277;48.890;2.306;2023-02-01T07:32:09;30.87;;;7.27;;
29254;SDS011;16277;48.890;2.306;2023-02-01T07:47:15;27.27;;;8.47;;
29254;SDS011;16277;48.890;2.306;2023-02-01T08:02:19;32.70;;;7.43;;
29254;SDS011;16277;48.890;2.306;2023-02-01T08:17:24;38.60;;;9.67;;
29254;SDS011;16277;48.890;2.306;2023-02-01T08:32:30;38.90;;;9.07;;
29254;SDS011;16277;48.890;2.306;2023-02-01T08:47:37;45.90;;;8.20;;
29254;SDS011;16277;48.890;2.306;2023-02-01T09:02:41;33.77;;;7.37;;
29254;SDS011;16277;48.890;2.306;2023-02-01T09:17:46;42.40;;;8.93;;
29254;SDS011;16277;48.890;2.306;2023-02-01T09:32:51;37.73;;;8.10;;
29254;SDS011;16277;48.890;2.306;2023-02-01T09:47:58;37.67;;;8.10;;
29254;SDS011;16277;48.890;2.306;2023-02-01T10:03:05;39.17;;;7.73;;
29254;SDS011;16277;48.890;2.306;2023-02-01T10:33:46;41.20;;;7.87;;
29254;SDS011;16277;48.890;2.306;2023-02-01T10:48:54;38.20;;;7.47;;
29254;SDS011;16277;48.890;2.306;2023-02-01T11:04:00;35.10;;;8.37;;
29254;SDS011;16277;48.890;2.306;2023-02-01T11:19:06;36.80;;;8.40;;
29254;SDS011;16277;48.890;2.306;2023-02-01T11:34:12;32.63;;;8.07;;
29254;SDS011;16277;48.890;2.306;2023-02-01T11:49:21;27.67;;;8.20;;
29254;SDS011;16277;48.890;2.306;2023-02-01T12:20:10;26.17;;;7.40;;
29254;SDS011;16277;48.890;2.306;2023-02-01T12:35:36;32.03;;;7.83;;
29254;SDS011;16277;48.890;2.306;2023-02-01T12:50:48;24.43;;;7.67;;
29254;SDS011;16277;48.890;2.306;2023-02-01T13:05:58;26.97;;;7.93;;
29254;SDS011;16277;48.890;2.306;2023-02-01T13:21:08;20.90;;;6.67;;
29254;SDS011;16277;48.890;2.306;2023-02-01T13:36:24;14.10;;;5.67;;
29254;SDS011;16277;48.890;2.306;2023-02-01T13:51:47;36.63;;;7.27;;
29254;SDS011;16277;48.890;2.306;2023-02-01T14:06:54;20.77;;;5.57;;
29254;SDS011;16277;48.890;2.306;2023-02-01T14:22:01;27.07;;;7.40;;
29254;SDS011;16277;48.890;2.306;2023-02-01T14:37:38;19.20;;;6.47;;
29254;SDS011;16277;48.890;2.306;2023-02-01T14:52:43;35.83;;;6.90;;
29254;SDS011;16277;48.890;2.306;2023-02-01T15:07:50;18.97;;;6.80;;
29254;SDS011;16277;48.890;2.306;2023-02-01T15:22:58;14.83;;;5.37;;
29254;SDS011;16277;48.890;2.306;2023-02-01T15:38:29;30.80;;;6.93;;
29254;SDS011;16277;48.890;2.306;2023-02-01T15:53:39;28.40;;;6.17;;
29254;SDS011;16277;48.890;2.306;2023-02-01T16:08:50;27.63;;;5.70;;
29254;SDS011;16277;48.890;2.306;2023-02-01T16:23:58;35.03;;;5.70;;
29254;SDS011;16277;48.890;2.306;2023-02-01T16:39:06;12.90;;;5.03;;
29254;SDS011;16277;48.890;2.306;2023-02-01T16:54:12;19.03;;;5.80;;
29254;SDS011;16277;48.890;2.306;2023-02-01T17:09:17;24.33;;;6.07;;
29254;SDS011;16277;48.890;2.306;2023-02-01T17:24:23;24.47;;;6.40;;
29254;SDS011;16277;48.890;2.306;2023-02-01T17:39:40;22.17;;;6.87;;
29254;SDS011;16277;48.890;2.306;2023-02-01T17:55:00;20.33;;;5.83;;
29254;SDS011;16277;48.890;2.306;2023-02-01T18:10:07;12.80;;;4.80;;
29254;SDS011;16277;48.890;2.306;2023-02-01T18:25:15;23.90;;;6.43;;
29254;SDS011;16277;48.890;2.306;2023-02-01T18:40:24;12.20;;;5.53;;
29254;SDS011;16277;48.890;2.306;2023-02-01T18:55:30;26.80;;;5.30;;
29254;SDS011;16277;48.890;2.306;2023-02-01T19:10:35;16.43;;;5.60;;
29254;SDS011;16277;48.890;2.306;2023-02-01T19:25:43;16.17;;;5.93;;
29254;SDS011;16277;48.890;2.306;2023-02-01T19:40:48;21.37;;;6.03;;
29254;SDS011;16277;48.890;2.306;2023-02-01T19:55:54;17.77;;;8.03;;
29254;SDS011;16277;48.890;2.306;2023-02-01T20:10:59;22.67;;;6.47;;
29254;SDS011;16277;48.890;2.306;2023-02-01T20:26:04;20.33;;;6.50;;
29254;SDS011;16277;48.890;2.306;2023-02-01T20:41:10;19.93;;;6.37;;
29254;SDS011;16277;48.890;2.306;2023-02-01T20:56:15;17.00;;;6.03;;
29254;SDS011;16277;48.890;2.306;2023-02-01T21:11:20;24.63;;;6.47;;
